DW8209 Gubbio IT current weather conditions

sailwx.info

Wind from 275

Air temperature 16.7° C
Dewpoint 14.7° C

Last reported at 2014-Aug-22 22:47 UTC.
Time now 2014-Aug-22 23:39 UTC

Location: N 43°19' E 012°34'.
View on Google Maps.

See reports from other nearby stations

  
Tides and Currents Weather Stations Pressure Air Temp Water Temp Dewpoint Dewpoint Depression Visibility Wind Speed Wind Dir Waves Ship Positions
date/time (UTC)wind fromknots sea level pressurealtimeterstation pressurevisibilityair tempwater tempwave heightnotes
2014-Aug-22 22:47 275 16.7
2014-Aug-22 22:32 274 16.1
2014-Aug-22 22:17 274 16.1
2014-Aug-22 22:02 274 16.1
2014-Aug-22 21:47 274 16.1
2014-Aug-22 21:31 277 16.1
2014-Aug-22 21:16 276 16.1
2014-Aug-22 21:01 277 16.1
2014-Aug-22 20:46 274 16.7
2014-Aug-22 20:31 274 16.7
2014-Aug-22 20:16 231 16.7
2014-Aug-22 20:01 231 17.2
2014-Aug-22 19:46 276 17.8
2014-Aug-22 19:31 294 18.3
2014-Aug-22 19:16 293 1 gusting 2 18.9
2014-Aug-22 19:01 331 1 gusting 1 18.9
2014-Aug-22 18:46 196 20.0
2014-Aug-22 18:31 223 20.6
2014-Aug-22 18:16 229 21.1
2014-Aug-22 18:01 096 1 gusting 1 21.7
2014-Aug-22 17:46 086 0 gusting 2 22.8
2014-Aug-22 17:31 120 23.3
2014-Aug-22 17:15 222 23.9
2014-Aug-22 17:00 264 23.9
2014-Aug-22 16:45 264 0 gusting 1 23.9
2014-Aug-22 16:30 281 2 gusting 5 24.4
2014-Aug-22 16:15 314 4 gusting 9 25.0
2014-Aug-22 16:00 262 4 gusting 9 25.0
2014-Aug-22 15:45 252 5 gusting 10 25.0
2014-Aug-22 15:30 267 4 gusting 7 25.0
2014-Aug-22 15:15 253 6 gusting 12 25.0
2014-Aug-22 15:00 252 3 gusting 7 24.4
2014-Aug-22 14:45 248 2 gusting 6 24.4
2014-Aug-22 14:30 271 2 gusting 6 24.4
2014-Aug-22 14:15 259 2 gusting 5 24.4
2014-Aug-22 14:00 252 3 gusting 5 24.4
2014-Aug-22 13:45 207 2 gusting 9 25.0
2014-Aug-22 13:30 213 4 gusting 8 25.0
2014-Aug-22 13:15 205 2 gusting 6 25.0
2014-Aug-22 13:00 288 2 gusting 8 25.6
2014-Aug-22 12:45 214 4 gusting 8 26.1
2014-Aug-22 12:30 244 3 gusting 7 25.6
2014-Aug-22 12:15 210 0 gusting 6 25.6
2014-Aug-22 12:00 219 2 gusting 6 25.6
2014-Aug-22 11:45 219 4 gusting 8 25.6
2014-Aug-22 11:30 159 0 gusting 6 25.0
2014-Aug-22 11:15 245 25.0
2014-Aug-22 11:00 211 0 gusting 6 25.0
2014-Aug-22 10:45 278 2 gusting 10 23.9
2014-Aug-22 10:30 253 5 gusting 9 23.9
2014-Aug-22 10:15 277 4 gusting 8 23.9
2014-Aug-22 10:00 266 2 gusting 5 23.9
2014-Aug-22 09:45 271 3 gusting 6 23.3
2014-Aug-22 09:29 275 0 gusting 5 22.8
2014-Aug-22 09:14 262 0 gusting 3 22.8
2014-Aug-22 08:59 281 1 gusting 5 22.2
2014-Aug-22 08:44 338 1 gusting 2 21.7
2014-Aug-22 08:29 023 21.7
2014-Aug-22 08:14 344 0 gusting 1 21.1
2014-Aug-22 07:59 081 21.1
2014-Aug-22 07:44 231 20.6
2014-Aug-22 07:29 067 19.4
2014-Aug-22 07:14 297 18.9
2014-Aug-22 06:59 300 18.9
2014-Aug-22 06:44 267 17.2
2014-Aug-22 06:29 289 16.7
2014-Aug-22 06:14 283 15.6
2014-Aug-22 05:59 284 15.0
2014-Aug-22 05:44 297 0 gusting 2 13.9
2014-Aug-22 05:29 295 13.3
2014-Aug-22 05:14 284 0 gusting 1 12.8
2014-Aug-22 04:59 276 12.2
2014-Aug-22 04:44 278 12.2
2014-Aug-22 04:29 278 12.2
2014-Aug-22 04:14 278 0 gusting 2 12.2
2014-Aug-22 03:59 233 0 gusting 1 12.8
2014-Aug-22 03:44 160 12.8
2014-Aug-22 03:29 161 13.3
2014-Aug-22 03:14 262 13.3
2014-Aug-22 02:59 282 0 gusting 1 13.3
2014-Aug-22 02:44 271 1 gusting 2 13.3
2014-Aug-22 02:29 255 13.9
2014-Aug-22 02:14 249 0 gusting 1 13.9
2014-Aug-22 01:59 262 0 gusting 0 13.9
2014-Aug-22 01:44 257 13.9
2014-Aug-22 01:29 257 14.4
2014-Aug-22 01:14 263 0 gusting 1 14.4
2014-Aug-22 00:58 273 0 gusting 2 15.0
2014-Aug-22 00:43 288 1 gusting 2 15.0
2014-Aug-22 00:28 259 0 gusting 1 15.0
2014-Aug-22 00:13 278 1 gusting 2 15.0
2014-Aug-21 23:58 275 1 gusting 1 15.0
2014-Aug-21 23:43 187 15.6
2014-Aug-21 23:13 283 1 gusting 2 16.1
2014-Aug-21 22:58 281 0 gusting 1 16.1
2014-Aug-21 22:43 274 0 gusting 1 16.7
2014-Aug-21 22:28 226 0 gusting 2 17.2
2014-Aug-21 22:13 224 1 gusting 2 17.2
2014-Aug-21 21:58 328 1 gusting 2 17.2
2014-Aug-21 21:43 242 17.2
2014-Aug-21 21:28 222 17.8
2014-Aug-21 21:13 274 0 gusting 0 18.3
2014-Aug-21 20:58 326 18.9
2014-Aug-21 20:43 344 0 gusting 1 18.9
2014-Aug-21 20:28 240 20.0
2014-Aug-21 20:13 221 20.0
2014-Aug-21 19:58 285 2 gusting 4 20.0
2014-Aug-21 19:42 254 20.6
2014-Aug-21 19:27 285 2 gusting 4 20.6
2014-Aug-21 19:12 280 2 gusting 4 21.7
2014-Aug-21 18:57 320 1 gusting 4 22.2
2014-Aug-21 18:42 214 0 gusting 3 22.8
2014-Aug-21 18:27 236 0 gusting 3 23.3
2014-Aug-21 18:12 197 1 gusting 6 23.3
2014-Aug-21 17:57 229 2 gusting 4 23.9
2014-Aug-21 17:42 194 0 gusting 7 23.9
2014-Aug-21 17:27 204 0 gusting 3 24.4
2014-Aug-21 17:12 207 1 gusting 4 24.4
2014-Aug-21 16:57 205 0 gusting 4 25.0
2014-Aug-21 16:42 228 3 gusting 6 25.6
2014-Aug-21 16:27 224 1 gusting 6 25.6
2014-Aug-21 16:12 245 2 gusting 5 26.1
2014-Aug-21 15:57 269 1 gusting 4 26.1
2014-Aug-21 15:42 246 2 gusting 6 26.1
2014-Aug-21 15:26 257 2 gusting 6 26.1
2014-Aug-21 15:11 232 4 gusting 8 26.7
2014-Aug-21 14:56 208 2 gusting 5 26.7
2014-Aug-21 14:41 207 2 gusting 6 26.7
2014-Aug-21 14:26 270 3 gusting 6 26.1
2014-Aug-21 14:11 302 0 gusting 2 26.7
2014-Aug-21 13:56 217 0 gusting 2 26.7
2014-Aug-21 13:41 145 26.1
2014-Aug-21 13:26 204 26.1
2014-Aug-21 13:11 238 2 gusting 4 26.1
2014-Aug-21 12:56 164 1 gusting 10 27.2
2014-Aug-21 12:41 172 2 gusting 6 27.2
2014-Aug-21 12:26 187 1 gusting 5 26.7
2014-Aug-21 12:11 206 4 gusting 7 26.7
2014-Aug-21 11:56 215 4 gusting 8 26.1
2014-Aug-21 11:41 211 2 gusting 9 26.1
2014-Aug-21 11:26 218 1 gusting 6 25.6
2014-Aug-21 11:11 269 1 gusting 6 25.6
2014-Aug-21 10:56 271 2 gusting 5 25.6
2014-Aug-21 10:41 219 2 gusting 7 24.4
2014-Aug-21 10:26 174 5 gusting 7 24.4
2014-Aug-21 10:11 267 5 gusting 9 25.0
2014-Aug-21 09:56 224 1 gusting 5 25.0
2014-Aug-21 09:41 226 1 gusting 7 25.0
2014-Aug-21 09:26 142 4 gusting 8 24.4
2014-Aug-21 09:11 143 2 gusting 7 24.4
2014-Aug-21 08:56 111 1 gusting 6 23.9
2014-Aug-21 08:41 214 3 gusting 6 23.9
2014-Aug-21 08:26 133 1 gusting 6 22.8
2014-Aug-21 08:11 217 3 gusting 6 22.2
2014-Aug-21 07:56 183 0 gusting 5 21.7
2014-Aug-21 07:41 190 1 gusting 5 21.7
2014-Aug-21 07:26 225 1 gusting 5 21.7
2014-Aug-21 07:11 174 0 gusting 5 21.7
2014-Aug-21 06:56 156 1 gusting 4 21.7
2014-Aug-21 06:41 181 1 gusting 5 20.6
2014-Aug-21 06:26 194 0 gusting 3 20.6
2014-Aug-21 06:11 193 1 gusting 5 20.6
2014-Aug-21 05:56 186 1 gusting 5 20.6
2014-Aug-21 05:41 204 2 gusting 4 20.6
2014-Aug-21 05:25 188 1 gusting 4 20.6
2014-Aug-21 05:10 180 0 gusting 4 20.6
2014-Aug-21 04:55 181 1 gusting 4 20.0
2014-Aug-21 04:40 180 20.6
2014-Aug-21 04:25 150 20.0
2014-Aug-21 04:10 131 20.6
2014-Aug-21 03:55 132 0 gusting 2 20.6
2014-Aug-21 03:40 221 20.6
2014-Aug-21 03:25 133 20.6
2014-Aug-21 03:10 169 20.6
2014-Aug-21 02:55 203 20.6
2014-Aug-21 02:40 304 0 gusting 3 20.6
2014-Aug-21 02:25 255 0 gusting 1 20.6
2014-Aug-21 02:10 272 20.6
2014-Aug-21 01:55 201 20.6
2014-Aug-21 01:40 233 3 gusting 6 20.6
2014-Aug-21 01:25 290 20.6
2014-Aug-21 01:10 181 2 gusting 6 20.6
2014-Aug-21 00:55 217 1 gusting 5 20.6
2014-Aug-21 00:40 191 0 gusting 3 20.6
2014-Aug-21 00:25 136 0 gusting 4 20.6
2014-Aug-21 00:10 153 0 gusting 4 20.6
2014-Aug-20 23:55 149 1 gusting 4 20.6
2014-Aug-20 23:40 129 1 gusting 5 20.6
2014-Aug-20 23:25 122 1 gusting 7 20.6
2014-Aug-20 23:10 131 2 gusting 7 19.4